Anson, Texas
Current Conditions -  °F | °C
As of 4:58 PM on Tuesday 21 Oct 2014 (Local Time) from KDYS Reporting Station
Broken Clouds Broken Clouds  
Wind Chill: 79°   Ceiling: 16000
Heat Index: 79°   Visibility: 10mi
Dew Point: 52°   Wind: 12mph
Humidity: 38%   Direction: 130°SE
Pressure: 30.01"   Gusts: NA
Location:  32.76°N, 99.9°W
Report Text: KDYS 212158Z AUTO 13010KT 10SM BKN160 26/11 A3001 RMK AO2 SLP131 T02620110
Loading
Personal Weather Stations






























Interactive Weather Map New forecast layout! Learn more

10-Day Weather Forecast

Advertisements
Track Severe Weather on mobile